Time;durP1;ratioP1;P1;durP2;ratioP2;P2;SDS_P1;SDS_P2;PMS_P1;PMS_P2;Temp;Humidity;BMP_temperature;BMP_pressure;BME280_temperature;BME280_humidity;BME280_pressure;Samples;Min_cycle;Max_cycle;Signal;HPM_P1;HPM_P2
2022/11/25 00:00:46;;;;;;;12.43;3.90;;;;;;;3.28;98.83;100653.78;5030913;28;20233;-79
2022/11/25 00:03:14;;;;;;;10.77;4.30;;;;;;;3.41;98.79;100648.06;5020409;28;20226;-79
2022/11/25 00:05:40;;;;;;;10.83;3.40;;;;;;;3.57;100.00;100639.66;5032731;28;20849;-80
2022/11/25 00:08:07;;;;;;;12.20;3.67;;;;;;;3.72;100.00;100639.13;5031242;28;20206;-80
2022/11/25 00:10:33;;;;;;;10.43;3.97;;;;;;;3.81;100.00;100642.25;5032847;28;20233;-80
2022/11/25 00:13:00;;;;;;;7.17;3.30;;;;;;;3.89;100.00;100635.88;5029962;28;20771;-80
2022/11/25 00:15:26;;;;;;;11.57;3.83;;;;;;;3.94;100.00;100647.13;5024837;28;20584;-80
2022/11/25 00:17:53;;;;;;;10.33;3.70;;;;;;;3.95;100.00;100636.50;5029214;28;20204;-79
2022/11/25 00:20:21;;;;;;;12.93;3.20;;;;;;;3.98;100.00;100635.53;5033702;28;20238;-80
2022/11/25 00:22:48;;;;;;;7.80;3.10;;;;;;;4.00;100.00;100631.91;5031857;28;20291;-80
2022/11/25 00:25:14;;;;;;;8.37;3.70;;;;;;;4.04;100.00;100633.53;5032478;28;20209;-80
2022/11/25 00:27:41;;;;;;;8.90;3.83;;;;;;;4.08;100.00;100621.13;5025460;28;20214;-80
2022/11/25 00:30:08;;;;;;;12.27;3.70;;;;;;;4.09;100.00;100623.69;5024477;28;20685;-80
2022/11/25 00:32:35;;;;;;;6.27;3.13;;;;;;;4.11;100.00;100619.22;5032215;28;20202;-80
2022/11/25 00:35:01;;;;;;;9.80;3.27;;;;;;;4.14;100.00;100603.28;5024530;28;20210;-80
2022/11/25 00:37:29;;;;;;;7.87;2.93;;;;;;;4.17;100.00;100608.44;5028822;28;20648;-80
2022/11/25 00:39:55;;;;;;;8.00;2.93;;;;;;;4.13;100.00;100606.81;5030254;28;20556;-80
2022/11/25 00:45:07;;;;;;;8.60;3.63;;;;;;;4.02;100.00;100610.78;5021707;28;20222;-81
2022/11/25 00:47:34;;;;;;;7.93;3.37;;;;;;;3.97;100.00;100607.44;5039483;28;20207;-80
2022/11/25 00:50:00;;;;;;;7.60;3.33;;;;;;;3.90;100.00;100611.25;5033421;28;20288;-80
2022/11/25 00:52:28;;;;;;;11.47;3.30;;;;;;;3.83;100.00;100603.56;5028002;28;20218;-80
2022/11/25 00:54:55;;;;;;;7.83;3.00;;;;;;;3.81;100.00;100601.88;5029628;28;20211;-80
2022/11/25 00:57:23;;;;;;;15.13;3.27;;;;;;;3.81;100.00;100608.03;5044825;28;20206;-80
2022/11/25 00:59:50;;;;;;;8.53;3.13;;;;;;;3.84;100.00;100601.78;5027018;28;20213;-80
2022/11/25 01:02:17;;;;;;;8.63;2.87;;;;;;;3.86;100.00;100605.22;5043425;28;20209;-80
2022/11/25 01:04:44;;;;;;;6.17;2.60;;;;;;;3.86;100.00;100614.91;5028961;28;20216;-80
2022/11/25 01:07:10;;;;;;;8.40;3.00;;;;;;;3.83;100.00;100605.34;5034550;28;20210;-80
2022/11/25 01:09:38;;;;;;;4.63;3.00;;;;;;;3.82;100.00;100608.88;5038407;28;20215;-81
2022/11/25 01:12:05;;;;;;;7.10;2.87;;;;;;;3.76;100.00;100614.38;5038020;28;20688;-80
2022/11/25 01:14:32;;;;;;;8.37;3.43;;;;;;;3.72;100.00;100612.78;5033369;28;20707;-80
2022/11/25 01:16:59;;;;;;;9.23;2.80;;;;;;;3.71;100.00;100611.06;5040581;28;20201;-80
2022/11/25 01:19:26;;;;;;;8.07;3.33;;;;;;;3.70;100.00;100609.34;5033560;28;20206;-80
2022/11/25 01:21:52;;;;;;;6.20;2.47;;;;;;;3.68;100.00;100611.16;5042253;28;20237;-80
2022/11/25 01:24:19;;;;;;;4.97;2.57;;;;;;;3.65;100.00;100612.13;5031960;28;20241;-80
2022/11/25 01:26:46;;;;;;;6.97;2.73;;;;;;;3.65;100.00;100606.00;5035315;28;20201;-80
2022/11/25 01:29:15;;;;;;;9.67;2.73;;;;;;;3.66;100.00;100608.56;5031976;28;20206;-80
2022/11/25 01:31:42;;;;;;;11.07;3.63;;;;;;;3.66;100.00;100607.72;5034219;28;20827;-80
2022/11/25 01:34:13;;;;;;;11.17;3.00;;;;;;;3.68;100.00;100609.38;5043517;28;20235;-81
2022/11/25 01:36:40;;;;;;;9.57;2.73;;;;;;;3.71;100.00;100618.94;5030196;28;20202;-80
2022/11/25 01:39:06;;;;;;;10.27;2.77;;;;;;;3.73;100.00;100617.13;5039397;28;20216;-80
2022/11/25 01:41:34;;;;;;;9.70;3.17;;;;;;;3.76;100.00;100622.28;5031252;28;20681;-81
2022/11/25 01:44:11;;;;;;;6.73;2.50;;;;;;;3.78;100.00;100612.53;5023691;28;20229;-80
2022/11/25 01:46:49;;;;;;;10.17;3.40;;;;;;;3.80;100.00;100610.72;5033012;28;20652;-80
2022/11/25 01:49:19;;;;;;;9.07;3.73;;;;;;;3.79;100.00;100614.25;5039671;28;20206;-80
2022/11/25 01:51:53;;;;;;;11.70;2.90;;;;;;;3.81;100.00;100615.06;5035142;28;20799;-80
2022/11/25 01:54:26;;;;;;;10.33;2.73;;;;;;;3.87;100.00;100622.75;5037249;28;20204;-80
2022/11/25 01:56:59;;;;;;;8.47;2.67;;;;;;;3.93;100.00;100611.13;5033997;28;20203;-80
2022/11/25 01:59:28;;;;;;;10.27;3.33;;;;;;;3.97;100.00;100604.81;5031253;28;20291;-80
2022/11/25 02:01:56;;;;;;;10.63;2.90;;;;;;;4.02;100.00;100611.66;5041514;28;20716;-80
2022/11/25 02:04:28;;;;;;;7.37;2.43;;;;;;;4.08;100.00;100602.66;5030874;28;20226;-81
2022/11/25 02:07:02;;;;;;;8.53;2.70;;;;;;;4.13;100.00;100598.91;5029376;28;20210;-81
2022/11/25 02:09:30;;;;;;;5.70;2.20;;;;;;;4.21;100.00;100595.16;5040845;28;20213;-80
2022/11/25 02:11:57;;;;;;;12.03;2.93;;;;;;;4.26;100.00;100601.09;5030323;28;20222;-81
2022/11/25 02:14:26;;;;;;;9.63;3.20;;;;;;;4.30;100.00;100605.34;5031618;28;20207;-80
2022/11/25 02:16:53;;;;;;;7.00;2.40;;;;;;;4.30;100.00;100600.09;5029885;28;20308;-80
2022/11/25 02:19:25;;;;;;;7.63;3.17;;;;;;;4.32;100.00;100603.50;5027228;28;20221;-80
2022/11/25 02:21:56;;;;;;;6.63;2.10;;;;;;;4.32;100.00;100599.06;5029269;28;20576;-80
2022/11/25 02:24:30;;;;;;;8.70;2.47;;;;;;;4.36;100.00;100599.81;5031475;28;20215;-80
2022/11/25 02:26:58;;;;;;;10.20;2.47;;;;;;;4.39;100.00;100590.03;5034926;28;20227;-81
2022/11/25 02:29:24;;;;;;;9.50;2.67;;;;;;;4.41;100.00;100582.06;5029832;28;20222;-80
2022/11/25 02:31:51;;;;;;;6.00;2.67;;;;;;;4.43;100.00;100580.22;5028977;28;20230;-80
2022/11/25 02:34:17;;;;;;;7.80;2.20;;;;;;;4.43;100.00;100590.78;5033680;28;20545;-80
2022/11/25 02:36:44;;;;;;;10.03;2.93;;;;;;;4.44;100.00;100585.44;5022649;28;20221;-80
2022/11/25 02:39:12;;;;;;;7.70;2.40;;;;;;;4.45;100.00;100594.22;5029546;28;20198;-84
2022/11/25 02:41:42;;;;;;;6.57;2.27;;;;;;;4.45;100.00;100579.25;5030157;28;20238;-81
2022/11/25 02:44:10;;;;;;;9.33;2.87;;;;;;;4.47;100.00;100584.47;5029498;28;20669;-82
2022/11/25 02:46:36;;;;;;;8.33;2.73;;;;;;;4.49;100.00;100580.81;5039403;28;20691;-81
2022/11/25 02:49:03;;;;;;;11.37;2.60;;;;;;;4.49;100.00;100579.97;5035856;28;20210;-81
2022/11/25 02:51:32;;;;;;;7.90;2.43;;;;;;;4.51;100.00;100578.13;5037569;28;20695;-81
2022/11/25 02:53:58;;;;;;;6.00;2.80;;;;;;;4.52;100.00;100572.78;5036391;28;20213;-81
2022/11/25 02:56:27;;;;;;;10.87;3.90;;;;;;;4.54;100.00;100556.91;5033975;28;20206;-80
2022/11/25 02:58:53;;;;;;;6.00;2.17;;;;;;;4.54;100.00;100562.19;5020166;28;20214;-81
2022/11/25 03:01:21;;;;;;;6.90;2.40;;;;;;;4.54;100.00;100565.69;5025760;28;20571;-82
2022/11/25 03:03:48;;;;;;;11.50;2.70;;;;;;;4.57;100.00;100564.72;5041898;28;20221;-81
2022/11/25 03:06:14;;;;;;;8.27;3.20;;;;;;;4.55;100.00;100563.91;5030259;28;20661;-82
2022/11/25 03:08:41;;;;;;;6.50;2.93;;;;;;;4.56;100.00;100567.41;5030307;28;20205;-81
2022/11/25 03:11:07;;;;;;;8.10;2.53;;;;;;;4.57;100.00;100567.34;5032849;28;20233;-81
2022/11/25 03:13:34;;;;;;;8.20;2.60;;;;;;;4.56;100.00;100564.75;5032536;28;20638;-81
2022/11/25 03:16:00;;;;;;;3.97;2.13;;;;;;;4.55;100.00;100569.19;5036059;28;20221;-81
2022/11/25 03:18:28;;;;;;;8.33;2.47;;;;;;;4.56;100.00;100570.03;5020839;28;20222;-81
2022/11/25 03:20:56;;;;;;;9.77;3.10;;;;;;;4.53;100.00;100573.66;5029867;28;20225;-81
2022/11/25 03:23:22;;;;;;;8.77;2.30;;;;;;;4.51;100.00;100562.31;5030957;28;20241;-81
2022/11/25 03:25:49;;;;;;;10.07;2.40;;;;;;;4.50;100.00;100563.22;5034358;28;20202;-81
2022/11/25 03:28:15;;;;;;;7.50;2.53;;;;;;;4.50;100.00;100569.34;5034518;28;20205;-82
2022/11/25 03:30:43;;;;;;;9.03;2.60;;;;;;;4.51;100.00;100568.44;5025125;28;20584;-82
2022/11/25 03:33:09;;;;;;;8.77;2.60;;;;;;;4.52;100.00;100569.28;5023700;28;20217;-82
2022/11/25 03:35:37;;;;;;;9.47;2.60;;;;;;;4.54;100.00;100567.47;5024677;28;20209;-82
2022/11/25 03:38:04;;;;;;;7.30;2.43;;;;;;;4.54;100.00;100564.81;5033536;28;20560;-82
2022/11/25 03:40:30;;;;;;;8.80;2.80;;;;;;;4.54;100.00;100560.41;5033290;28;20229;-82
2022/11/25 03:42:57;;;;;;;13.73;2.83;;;;;;;4.54;100.00;100560.41;5028754;28;20210;-81
2022/11/25 03:45:23;;;;;;;10.63;2.10;;;;;;;4.55;100.00;100569.19;5033335;28;20212;-81
2022/11/25 03:47:49;;;;;;;9.67;3.03;;;;;;;4.55;100.00;100563.91;5035761;28;20202;-82
2022/11/25 03:50:16;;;;;;;10.10;2.30;;;;;;;4.56;100.00;100568.25;5025255;28;20815;-81
2022/11/25 03:52:44;;;;;;;7.20;3.03;;;;;;;4.54;100.00;100568.31;5030263;28;20202;-81
2022/11/25 03:55:11;;;;;;;10.27;2.80;;;;;;;4.53;100.00;100565.75;5032186;28;20214;-81
2022/11/25 03:57:38;;;;;;;7.77;2.23;;;;;;;4.52;100.00;100569.28;5038344;28;20233;-81
2022/11/25 04:00:06;;;;;;;11.97;2.70;;;;;;;4.50;100.00;100561.44;5034936;28;20210;-82
2022/11/25 04:02:33;;;;;;;6.43;2.20;;;;;;;4.49;100.00;100572.06;5028667;28;20943;-82
2022/11/25 04:04:59;;;;;;;5.73;2.33;;;;;;;4.47;100.00;100571.28;5024898;28;20592;-81
2022/11/25 04:07:26;;;;;;;9.30;2.57;;;;;;;4.45;100.00;100565.22;5034209;28;20582;-82
2022/11/25 04:09:54;;;;;;;8.73;2.43;;;;;;;4.43;100.00;100574.94;5023868;28;20219;-81
2022/11/25 04:15:05;;;;;;;5.23;2.97;;;;;;;4.34;100.00;100570.03;5022629;28;20234;-82
2022/11/25 04:17:31;;;;;;;11.33;2.80;;;;;;;4.27;100.00;100577.31;5031801;28;20218;-81
2022/11/25 04:19:58;;;;;;;10.07;2.60;;;;;;;4.23;100.00;100578.34;5032396;28;20304;-81
2022/11/25 04:22:24;;;;;;;8.13;2.90;;;;;;;4.18;100.00;100575.88;5033156;28;20760;-81
2022/11/25 04:24:51;;;;;;;10.03;2.90;;;;;;;4.14;100.00;100579.56;5040125;28;20225;-81
2022/11/25 04:27:19;;;;;;;6.10;3.23;;;;;;;4.11;100.00;100581.47;5023644;28;20214;-81
2022/11/25 04:29:45;;;;;;;9.23;2.60;;;;;;;4.07;100.00;100583.34;5037720;28;20237;-82
2022/11/25 04:32:12;;;;;;;10.27;3.37;;;;;;;4.05;100.00;100584.31;5025192;28;20245;-81
2022/11/25 04:34:38;;;;;;;7.23;2.63;;;;;;;4.02;100.00;100590.56;5028826;28;20202;-81
2022/11/25 04:37:05;;;;;;;9.43;2.53;;;;;;;4.03;100.00;100592.28;5033053;28;20702;-81
2022/11/25 04:39:31;;;;;;;7.17;2.30;;;;;;;4.06;100.00;100586.03;5038754;28;20218;-81
2022/11/25 04:44:39;;;;;;;8.87;3.13;;;;;;;4.16;100.00;100575.09;5032142;28;20649;-81
2022/11/25 04:47:06;;;;;;;11.13;2.80;;;;;;;4.22;100.00;100575.78;5029498;28;20230;-81
2022/11/25 04:49:32;;;;;;;9.03;3.17;;;;;;;4.27;100.00;100576.47;5031029;28;20213;-82
2022/11/25 04:51:59;;;;;;;11.70;2.90;;;;;;;4.30;100.00;100574.53;5031269;28;20258;-81
2022/11/25 04:54:25;;;;;;;6.90;2.80;;;;;;;4.34;100.00;100572.66;5031938;28;20212;-82
2022/11/25 04:56:52;;;;;;;15.97;3.20;;;;;;;4.36;100.00;100566.41;5026955;28;20207;-82
2022/11/25 05:02:04;;;;;;;9.00;2.93;;;;;;;4.39;100.00;100563.66;5027694;28;20839;-82
2022/11/25 05:04:31;;;;;;;9.47;2.33;;;;;;;4.38;100.00;100561.94;5025619;28;20230;-81
2022/11/25 05:06:58;;;;;;;8.00;3.90;;;;;;;4.38;100.00;100569.84;5021097;28;20657;-81
2022/11/25 05:09:24;;;;;;;10.47;3.20;;;;;;;4.36;100.00;100563.78;5024521;28;20669;-82
2022/11/25 05:11:51;;;;;;;10.23;3.00;;;;;;;4.36;100.00;100578.72;5026023;28;20218;-81
2022/11/25 05:14:17;;;;;;;9.77;2.50;;;;;;;4.36;100.00;100571.69;5023571;28;20590;-82
2022/11/25 05:16:44;;;;;;;10.80;3.70;;;;;;;4.36;100.00;100574.31;5024864;28;20569;-81
2022/11/25 05:19:11;;;;;;;10.60;2.87;;;;;;;4.37;100.00;100567.28;5020397;28;20617;-80
2022/11/25 05:21:38;;;;;;;9.17;2.40;;;;;;;4.34;100.00;100570.88;5022924;28;20234;-80
2022/11/25 05:24:05;;;;;;;9.37;2.70;;;;;;;4.34;100.00;100565.59;5023625;28;20234;-81
2022/11/25 05:26:31;;;;;;;9.47;2.50;;;;;;;4.34;100.00;100567.38;5027218;28;20640;-80
2022/11/25 05:28:57;;;;;;;7.47;3.27;;;;;;;4.32;100.00;100577.13;5026196;28;20202;-81
2022/11/25 05:31:24;;;;;;;5.53;3.07;;;;;;;4.30;100.00;100576.34;5020998;28;20599;-81
2022/11/25 05:33:50;;;;;;;11.37;3.10;;;;;;;4.29;100.00;100572.84;5024835;28;20203;-81
2022/11/25 05:36:18;;;;;;;8.53;2.70;;;;;;;4.29;100.00;100572.00;5024032;28;20210;-81
2022/11/25 05:38:45;;;;;;;12.03;2.30;;;;;;;4.31;100.00;100572.78;5029621;28;20209;-80
2022/11/25 05:41:12;;;;;;;10.40;3.63;;;;;;;4.32;100.00;100566.59;5021120;28;20234;-81
2022/11/25 05:43:38;;;;;;;9.50;3.00;;;;;;;4.32;100.00;100562.16;5020560;28;20551;-80
2022/11/25 05:46:05;;;;;;;10.90;3.23;;;;;;;4.33;100.00;100560.38;5026717;28;20210;-80
2022/11/25 05:48:31;;;;;;;14.43;3.40;;;;;;;4.35;100.00;100555.91;5026959;28;20582;-80
2022/11/25 05:50:59;;;;;;;9.40;3.13;;;;;;;4.36;100.00;100561.13;5027927;28;20249;-81
2022/11/25 05:53:27;;;;;;;7.00;2.63;;;;;;;4.36;100.00;100563.78;5022449;28;20206;-81
2022/11/25 05:55:56;;;;;;;12.00;3.30;;;;;;;4.35;100.00;100561.19;5025814;28;20205;-81
2022/11/25 05:58:22;;;;;;;9.80;3.13;;;;;;;4.34;100.00;100568.25;5019210;28;20873;-81
2022/11/25 06:00:49;;;;;;;6.50;3.30;;;;;;;4.35;100.00;100566.47;5024706;28;20586;-81
2022/11/25 06:03:15;;;;;;;12.27;3.57;;;;;;;4.34;100.00;100557.69;5026974;28;20576;-81
2022/11/25 06:05:42;;;;;;;8.50;2.70;;;;;;;4.34;100.00;100559.47;5027590;28;20638;-81
2022/11/25 06:08:09;;;;;;;7.97;2.93;;;;;;;4.33;100.00;100563.03;5026688;28;20785;-81
2022/11/25 06:10:40;;;;;;;9.03;2.57;;;;;;;4.32;100.00;100569.22;5028351;28;20237;-81
2022/11/25 06:13:06;;;;;;;11.50;3.00;;;;;;;4.30;100.00;100571.09;5026711;28;20268;-81
2022/11/25 06:15:33;;;;;;;11.10;3.47;;;;;;;4.27;100.00;100565.91;5026834;28;20209;-81
2022/11/25 06:17:59;;;;;;;11.00;3.63;;;;;;;4.25;100.00;100565.97;5022093;28;20206;-81
2022/11/25 06:20:26;;;;;;;10.17;2.80;;;;;;;4.26;100.00;100574.75;5023398;28;20241;-81
2022/11/25 06:22:53;;;;;;;9.17;3.10;;;;;;;4.26;100.00;100577.38;5031415;28;20206;-81
2022/11/25 06:25:20;;;;;;;7.17;3.17;;;;;;;4.27;100.00;100571.19;5031197;28;20253;-80
2022/11/25 06:27:47;;;;;;;8.23;2.90;;;;;;;4.30;100.00;100576.34;5026781;28;20206;-81
2022/11/25 06:30:15;;;;;;;11.57;3.20;;;;;;;4.30;100.00;100576.34;5027272;28;20230;-80
2022/11/25 06:32:41;;;;;;;9.43;3.73;;;;;;;4.30;100.00;100579.00;5041287;28;20206;-81
2022/11/25 06:35:08;;;;;;;6.87;3.10;;;;;;;4.30;100.00;100573.72;5034058;28;20726;-81
2022/11/25 06:37:35;;;;;;;11.27;4.20;;;;;;;4.35;100.00;100569.09;5036634;28;20202;-81
2022/11/25 06:40:01;;;;;;;13.33;3.67;;;;;;;4.45;100.00;100557.28;5038707;28;20206;-81
2022/11/25 06:42:28;;;;;;;10.93;3.20;;;;;;;4.56;100.00;100562.13;5035944;28;20301;-81
2022/11/25 06:44:56;;;;;;;8.67;2.90;;;;;;;4.66;100.00;100563.50;5031323;28;20236;-81
2022/11/25 06:47:22;;;;;;;10.60;3.17;;;;;;;4.76;100.00;100567.47;5041362;28;20569;-81
2022/11/25 06:49:49;;;;;;;8.77;3.00;;;;;;;4.86;100.00;100571.44;5040899;28;20562;-81
2022/11/25 06:52:16;;;;;;;9.17;3.03;;;;;;;4.95;100.00;100578.13;5042105;28;20206;-81
2022/11/25 06:54:42;;;;;;;10.97;3.13;;;;;;;5.01;100.00;100567.31;5040533;28;20599;-81
2022/11/25 06:57:09;;;;;;;9.90;3.23;;;;;;;5.06;100.00;100575.88;5023339;28;20202;-81
2022/11/25 06:59:36;;;;;;;5.83;2.27;;;;;;;5.10;100.00;100586.25;5030190;28;20209;-81
2022/11/25 07:02:04;;;;;;;6.57;2.50;;;;;;;5.17;100.00;100590.38;5030245;28;20226;-81
2022/11/25 07:04:31;;;;;;;8.97;2.73;;;;;;;5.27;100.00;100585.53;5024412;28;20227;-81
2022/11/25 07:06:57;;;;;;;9.53;2.63;;;;;;;5.34;100.00;100589.66;5025115;28;20202;-81
2022/11/25 07:09:24;;;;;;;8.13;2.30;;;;;;;5.38;100.00;100583.28;5035232;28;20210;-81
2022/11/25 07:11:50;;;;;;;9.10;2.37;;;;;;;5.42;100.00;100584.03;5034035;28;20660;-81
2022/11/25 07:14:17;;;;;;;10.73;2.70;;;;;;;5.44;100.00;100587.47;5033910;28;20199;-81
2022/11/25 07:16:45;;;;;;;11.80;2.60;;;;;;;5.51;100.00;100588.94;5038663;28;20197;-80
2022/11/25 07:19:15;;;;;;;9.07;2.40;;;;;;;5.56;100.00;100593.06;5029663;28;20210;-81
2022/11/25 07:21:44;;;;;;;10.23;2.30;;;;;;;5.64;100.00;100597.16;5041474;28;20699;-81
2022/11/25 07:24:12;;;;;;;9.30;2.50;;;;;;;5.72;100.00;100600.34;5021747;28;20230;-81
2022/11/25 07:26:40;;;;;;;9.67;2.50;;;;;;;5.81;100.00;100607.84;5031669;28;20214;-81
2022/11/25 07:29:08;;;;;;;10.13;2.80;;;;;;;5.84;100.00;100623.56;5034662;28;20681;-81
2022/11/25 07:31:36;;;;;;;9.27;2.60;;;;;;;5.85;100.00;100617.38;5028044;28;20229;-81
2022/11/25 07:34:05;;;;;;;12.10;3.40;;;;;;;5.85;100.00;100620.00;5021242;28;20210;-80
2022/11/25 07:36:34;;;;;;;5.37;3.00;;;;;;;5.85;100.00;100631.44;5025275;28;20207;-81
2022/11/25 07:39:03;;;;;;;10.23;2.40;;;;;;;5.86;100.00;100633.16;5026252;28;20225;-81
2022/11/25 07:41:29;;;;;;;7.27;2.80;;;;;;;5.89;100.00;100638.34;5028579;28;20230;-82
2022/11/25 07:43:58;;;;;;;10.13;2.93;;;;;;;5.95;100.00;100641.63;5023258;28;20684;-83
2022/11/25 07:46:26;;;;;;;10.80;2.53;;;;;;;5.98;100.00;100644.13;5045041;28;20205;-82
2022/11/25 07:48:53;;;;;;;8.80;2.47;;;;;;;6.02;100.00;100653.66;5041166;28;20554;-83
2022/11/25 07:51:22;;;;;;;6.10;2.50;;;;;;;6.08;100.00;100658.69;5043004;28;20712;-83
2022/11/25 07:53:51;;;;;;;9.87;2.57;;;;;;;6.12;100.00;100644.38;5043926;28;20208;-83
2022/11/25 07:56:18;;;;;;;7.77;2.80;;;;;;;6.15;100.00;100655.66;5049986;28;20209;-83
2022/11/25 07:58:45;;;;;;;7.20;2.33;;;;;;;6.18;100.00;100652.91;5040328;28;20548;-83
2022/11/25 08:01:13;;;;;;;9.03;3.00;;;;;;;6.25;100.00;100657.00;5046408;28;20233;-82
2022/11/25 08:03:42;;;;;;;15.97;4.70;;;;;;;6.31;100.00;100660.25;5035954;28;20206;-82
2022/11/25 08:06:11;;;;;;;10.37;3.37;;;;;;;6.33;100.00;100661.06;5045876;28;20236;-84
2022/11/25 08:08:38;;;;;;;9.97;3.20;;;;;;;6.35;100.00;100673.28;5036287;28;20198;-83
2022/11/25 08:11:09;;;;;;;7.47;2.80;;;;;;;6.35;100.00;100668.00;5045121;28;20599;-84
2022/11/25 08:13:35;;;;;;;9.10;2.90;;;;;;;6.37;100.00;100673.22;5042509;28;20199;-83
2022/11/25 08:16:02;;;;;;;11.23;3.27;;;;;;;6.37;100.00;100671.44;5034209;28;20228;-83
2022/11/25 08:18:29;;;;;;;8.13;2.97;;;;;;;6.40;100.00;100679.22;5042077;28;20695;-83
2022/11/25 08:20:59;;;;;;;10.33;3.30;;;;;;;6.40;100.00;100681.03;5047486;28;20248;-82
2022/11/25 08:23:25;;;;;;;9.53;3.87;;;;;;;6.42;100.00;100671.22;5041451;28;20643;-82
2022/11/25 08:25:52;;;;;;;8.23;3.07;;;;;;;6.44;100.00;100674.66;5045266;28;20234;-83
2022/11/25 08:28:20;;;;;;;7.30;2.63;;;;;;;6.45;100.00;100677.22;5046151;28;20648;-83
2022/11/25 08:30:47;;;;;;;9.97;3.13;;;;;;;6.45;100.00;100673.75;5042767;28;20279;-84
2022/11/25 08:33:13;;;;;;;7.73;3.80;;;;;;;6.43;100.00;100678.25;5043439;28;20562;-82
2022/11/25 08:35:40;;;;;;;8.70;3.50;;;;;;;6.42;100.00;100681.81;5037056;28;20731;-82
2022/11/25 08:38:08;;;;;;;8.50;3.40;;;;;;;6.42;100.00;100681.81;5041977;28;20206;-83
2022/11/25 08:40:36;;;;;;;9.90;4.33;;;;;;;6.41;100.00;100677.44;5041355;28;20717;-82
2022/11/25 08:43:03;;;;;;;11.20;3.50;;;;;;;6.41;100.00;100682.75;5043506;28;20643;-83
2022/11/25 08:45:31;;;;;;;12.03;4.00;;;;;;;6.40;100.00;100681.88;5036556;28;20679;-83
2022/11/25 08:47:57;;;;;;;10.10;3.23;;;;;;;6.41;100.00;100674.81;5036034;28;20228;-84
2022/11/25 08:50:24;;;;;;;9.60;3.20;;;;;;;6.41;100.00;100688.03;5034140;28;20222;-83
2022/11/25 08:52:50;;;;;;;10.03;3.57;;;;;;;6.41;100.00;100685.38;5040415;28;20255;-82
2022/11/25 08:55:17;;;;;;;9.77;3.10;;;;;;;6.39;100.00;100687.25;5037713;28;20201;-82
2022/11/25 08:57:43;;;;;;;9.73;3.73;;;;;;;6.41;100.00;100695.97;5038474;28;20719;-82
2022/11/25 09:00:11;;;;;;;9.63;3.60;;;;;;;6.39;100.00;100689.88;5042097;28;20572;-83
2022/11/25 09:02:39;;;;;;;10.73;3.20;;;;;;;6.41;100.00;100698.63;5030157;28;20653;-83
2022/11/25 09:05:05;;;;;;;13.53;3.57;;;;;;;6.42;100.00;100700.34;5035692;28;20269;-82
2022/11/25 09:07:32;;;;;;;10.17;3.10;;;;;;;6.43;100.00;100699.41;5043344;28;20206;-83
2022/11/25 09:09:58;;;;;;;11.17;3.00;;;;;;;6.45;100.00;100700.19;5036384;28;20214;-82
2022/11/25 09:12:25;;;;;;;7.90;2.50;;;;;;;6.45;100.00;100701.03;5041661;28;20206;-83
2022/11/25 09:14:51;;;;;;;6.33;3.00;;;;;;;6.47;100.00;100707.09;5032577;28;20203;-82
2022/11/25 09:17:17;;;;;;;9.97;3.57;;;;;;;6.48;100.00;100702.69;5034673;28;20202;-82
2022/11/25 09:19:45;;;;;;;8.63;3.50;;;;;;;6.49;100.00;100707.03;5041854;28;20209;-82
2022/11/25 09:22:14;;;;;;;9.47;3.23;;;;;;;6.51;100.00;100711.34;5037287;28;20229;-81
2022/11/25 09:24:42;;;;;;;7.93;2.83;;;;;;;6.54;100.00;100719.13;5026753;28;20222;-81
2022/11/25 09:27:08;;;;;;;10.63;3.30;;;;;;;6.57;100.00;100716.34;5024861;28;20242;-81
2022/11/25 09:29:35;;;;;;;11.77;3.47;;;;;;;6.61;100.00;100717.94;5026837;28;20210;-81
2022/11/25 09:32:02;;;;;;;8.57;3.13;;;;;;;6.66;100.00;100722.16;5028574;28;20245;-81
2022/11/25 09:34:28;;;;;;;7.07;3.67;;;;;;;6.69;100.00;100716.72;5034989;28;20210;-81
2022/11/25 09:36:56;;;;;;;8.83;2.83;;;;;;;6.73;100.00;100711.22;5026605;28;20202;-81
2022/11/25 09:39:26;;;;;;;8.00;2.80;;;;;;;6.75;100.00;100713.78;5032492;28;20215;-81
2022/11/25 09:47:54;;;;;;;10.37;3.80;;;;;;;6.85;100.00;100723.88;5042015;28;20566;-81
2022/11/25 09:50:32;;;;;;;10.37;2.90;;;;;;;6.87;100.00;100721.16;5033305;28;20229;-81
2022/11/25 09:53:09;;;;;;;7.87;3.03;;;;;;;6.91;100.00;100722.72;5034167;28;20194;-81
2022/11/25 09:55:41;;;;;;;10.63;3.17;;;;;;;6.94;100.00;100730.53;5023278;28;20194;-81
2022/11/25 09:58:20;;;;;;;8.33;2.43;;;;;;;6.96;100.00;100721.59;5019344;28;20203;-81
2022/11/25 10:00:50;;;;;;;14.30;6.37;;;;;;;7.00;100.00;100737.31;5018723;28;20234;-81
2022/11/25 10:03:30;;;;;;;10.33;5.00;;;;;;;7.02;100.00;100732.81;5022981;28;20210;-81
2022/11/25 10:06:01;;;;;;;12.63;5.23;;;;;;;7.05;100.00;100732.66;5027341;28;20850;-81
2022/11/25 10:08:33;;;;;;;16.47;4.27;;;;;;;7.09;100.00;100739.53;5020613;28;20202;-81
2022/11/25 10:11:10;;;;;;;8.73;2.43;;;;;;;7.13;100.00;100738.47;5021245;28;20230;-81
2022/11/25 10:13:44;;;;;;;12.10;3.30;;;;;;;7.14;100.00;100740.19;5021786;28;20206;-81
2022/11/25 10:16:26;;;;;;;8.40;2.77;;;;;;;7.16;100.00;100739.19;5025744;28;20194;-81
2022/11/25 10:18:59;;;;;;;7.67;3.20;;;;;;;7.21;100.00;100742.44;5018339;28;20198;-81
2022/11/25 10:21:26;;;;;;;7.67;3.40;;;;;;;7.25;100.00;100737.88;5018931;28;20251;-81
2022/11/25 10:23:55;;;;;;;8.03;2.87;;;;;;;7.30;100.00;100749.97;5023974;28;20204;-81
2022/11/25 10:26:27;;;;;;;9.20;2.70;;;;;;;7.34;100.00;100739.22;5021923;28;20710;-81
2022/11/25 10:28:59;;;;;;;8.73;2.50;;;;;;;7.36;100.00;100745.28;5019288;28;20934;-81
2022/11/25 10:31:34;;;;;;;5.40;2.60;;;;;;;7.37;100.00;100742.56;5028600;28;20234;-81
2022/11/25 10:34:02;;;;;;;6.80;2.23;;;;;;;7.41;100.00;100740.63;5024060;28;20212;-81
2022/11/25 10:36:32;;;;;;;7.73;3.13;;;;;;;7.43;100.00;100747.59;5027862;28;20613;-81
2022/11/25 10:39:05;;;;;;;9.70;3.40;;;;;;;7.46;100.00;100750.09;5027809;28;20214;-81
2022/11/25 10:41:34;;;;;;;8.07;2.77;;;;;;;7.48;99.95;100753.53;5027205;28;20226;-81
2022/11/25 10:44:01;;;;;;;10.97;5.67;;;;;;;7.48;100.00;100747.38;5022080;28;20213;-81
2022/11/25 10:46:36;;;;;;;14.67;6.43;;;;;;;7.48;99.89;100756.16;5040267;28;20232;-82
2022/11/25 10:49:13;;;;;;;11.80;3.73;;;;;;;7.51;99.21;100748.06;5031835;28;20210;-82
2022/11/25 10:51:45;;;;;;;12.57;3.83;;;;;;;7.49;99.09;100755.25;5040922;28;20229;-82
2022/11/25 10:54:16;;;;;;;7.60;3.00;;;;;;;7.50;98.50;100753.44;5033829;28;20203;-82
2022/11/25 10:56:45;;;;;;;10.07;3.23;;;;;;;7.48;97.92;100752.66;5039177;28;20212;-83
2022/11/25 10:59:21;;;;;;;14.70;3.80;;;;;;;7.47;98.10;100758.91;5035542;28;20772;-83
2022/11/25 11:01:47;;;;;;;10.03;3.83;;;;;;;7.48;97.57;100753.53;5033284;28;20568;-82
2022/11/25 11:04:17;;;;;;;11.73;3.90;;;;;;;7.51;97.94;100753.38;5028655;28;20206;-82
2022/11/25 11:06:45;;;;;;;12.23;3.90;;;;;;;7.52;97.56;100760.41;5029938;28;20219;-83
2022/11/25 11:09:31;;;;;;;7.50;2.40;;;;;;;7.51;97.46;100757.81;5025298;28;20229;-82
2022/11/25 11:11:58;;;;;;;7.23;2.13;;;;;;;7.54;97.06;100760.28;5022785;28;20692;-82
2022/11/25 11:14:28;;;;;;;7.80;2.40;;;;;;;7.54;96.51;100761.16;5025895;28;20206;-82
2022/11/25 11:16:56;;;;;;;7.57;2.63;;;;;;;7.57;96.82;100754.84;5027068;28;20213;-82
2022/11/25 11:19:25;;;;;;;5.80;2.47;;;;;;;7.56;96.70;100761.06;5021140;28;20699;-82
2022/11/25 11:21:53;;;;;;;6.03;2.30;;;;;;;7.58;96.68;100772.47;5025053;28;20218;-82
2022/11/25 11:24:27;;;;;;;6.33;2.60;;;;;;;7.57;96.51;100768.09;5020916;28;20202;-82
2022/11/25 11:27:19;;;;;;;9.03;2.83;;;;;;;7.58;96.27;100765.38;5030331;28;20210;-82
2022/11/25 11:29:45;;;;;;;6.50;3.33;;;;;;;7.63;95.59;100767.81;5022229;28;20210;-82
2022/11/25 11:32:23;;;;;;;6.13;2.90;;;;;;;7.62;95.84;100768.75;5017707;28;20231;-82
2022/11/25 11:35:03;;;;;;;7.00;3.60;;;;;;;7.63;95.90;100770.47;5022069;28;20217;-82
2022/11/25 11:37:40;;;;;;;8.90;3.00;;;;;;;7.66;96.25;100765.00;5023346;28;20212;-82
2022/11/25 11:40:31;;;;;;;7.73;2.80;;;;;;;7.64;95.90;100770.38;5022523;28;20202;-82
2022/11/25 11:43:13;;;;;;;9.80;2.70;;;;;;;7.64;95.87;100762.44;5016827;28;20216;-82
2022/11/25 11:46:02;;;;;;;6.53;2.90;;;;;;;7.64;96.21;100774.81;5018265;28;20252;-82